Time;durP1;ratioP1;P1;durP2;ratioP2;P2;SDS_P1;SDS_P2;PMS_P1;PMS_P2;Temp;Humidity;BMP_temperature;BMP_pressure;BME280_temperature;BME280_humidity;BME280_pressure;Samples;Min_cycle;Max_cycle;Signal;HPM_P1;HPM_P2
2020/12/24 00:01:24;;;;;;;2.78;1.80;;;;;;;10.46;100.00;100020.94;5075892;28;20044;-69
2020/12/24 00:04:08;;;;;;;3.63;1.60;;;;;;;10.45;100.00;99995.28;5074892;28;20512;-69
2020/12/24 00:06:52;;;;;;;1.70;1.13;;;;;;;10.42;100.00;99992.94;5075620;28;20524;-69
2020/12/24 00:09:36;;;;;;;3.08;2.17;;;;;;;10.38;100.00;99975.56;5074890;28;20048;-69
2020/12/24 00:12:19;;;;;;;1.50;1.25;;;;;;;10.33;100.00;99993.00;5074388;28;20078;-69
2020/12/24 00:15:05;;;;;;;1.30;1.05;;;;;;;10.30;100.00;100010.13;5075442;28;20110;-69
2020/12/24 00:17:49;;;;;;;2.45;1.20;;;;;;;10.23;100.00;100001.03;5075389;28;20098;-69
2020/12/24 00:20:33;;;;;;;3.50;1.02;;;;;;;10.20;100.00;100002.31;5074482;28;20562;-69
2020/12/24 00:23:17;;;;;;;3.53;1.75;;;;;;;10.15;100.00;100004.56;5074534;28;20543;-69
2020/12/24 00:26:03;;;;;;;2.65;1.00;;;;;;;10.14;100.00;99976.25;5074222;28;20531;-70
2020/12/24 00:28:48;;;;;;;2.75;1.00;;;;;;;10.02;100.00;100007.59;5074434;28;20097;-69
2020/12/24 00:31:33;;;;;;;1.27;1.10;;;;;;;9.99;100.00;100013.16;5075253;28;20120;-69
2020/12/24 00:34:17;;;;;;;1.40;0.80;;;;;;;9.98;100.00;100029.31;5074205;28;20110;-69
2020/12/24 00:37:01;;;;;;;6.28;0.90;;;;;;;9.90;100.00;100018.53;5075340;28;20416;-69
2020/12/24 00:39:45;;;;;;;3.13;1.08;;;;;;;9.84;100.00;100025.28;5075315;28;20520;-69
2020/12/24 00:42:29;;;;;;;2.55;0.93;;;;;;;9.80;100.00;100020.41;5074877;28;20083;-69
2020/12/24 00:45:13;;;;;;;1.63;0.70;;;;;;;9.81;100.00;100032.72;5074880;28;20573;-69
2020/12/24 00:47:57;;;;;;;4.05;0.90;;;;;;;9.78;100.00;100027.69;5073828;28;20408;-69
2020/12/24 00:50:42;;;;;;;2.22;0.60;;;;;;;9.84;100.00;100032.41;5075137;28;20063;-69
2020/12/24 00:53:26;;;;;;;2.25;0.60;;;;;;;10.02;100.00;100012.03;5075020;28;20051;-70
2020/12/24 00:56:10;;;;;;;2.53;0.90;;;;;;;10.21;96.08;100015.47;5074706;28;20047;-69
2020/12/24 00:58:54;;;;;;;5.28;1.27;;;;;;;10.29;94.53;100035.09;5073824;28;20047;-69
2020/12/24 01:01:38;;;;;;;1.85;0.90;;;;;;;10.40;93.01;100045.53;5074776;28;20043;-69
2020/12/24 01:04:22;;;;;;;2.33;1.02;;;;;;;10.47;91.52;100019.13;5073825;28;20126;-70
2020/12/24 01:07:05;;;;;;;4.63;0.98;;;;;;;10.60;89.01;100028.44;5073490;28;20105;-69
2020/12/24 01:09:49;;;;;;;1.58;1.20;;;;;;;10.67;87.32;99994.84;5074561;28;20050;-71
2020/12/24 01:12:34;;;;;;;1.65;0.90;;;;;;;10.69;88.66;99984.91;5073184;28;20059;-70
2020/12/24 01:15:18;;;;;;;0.80;0.70;;;;;;;10.74;87.77;100011.91;5073496;28;20405;-70
2020/12/24 01:18:01;;;;;;;1.88;0.68;;;;;;;10.75;85.85;100021.59;5074509;28;20054;-71
2020/12/24 01:20:45;;;;;;;1.92;0.68;;;;;;;10.84;84.73;100018.03;5074377;28;20074;-71
2020/12/24 01:23:30;;;;;;;3.08;0.70;;;;;;;10.82;85.57;100030.69;5074369;28;20051;-71
2020/12/24 01:26:14;;;;;;;1.52;0.63;;;;;;;10.81;84.87;100034.34;5074315;28;20051;-70
2020/12/24 01:28:59;;;;;;;3.47;1.02;;;;;;;10.84;85.67;100044.69;5074157;28;20417;-70
2020/12/24 01:31:50;;;;;;;6.85;0.95;;;;;;;10.76;87.38;100041.94;5072996;28;20404;-70
2020/12/24 01:34:34;;;;;;;3.40;0.90;;;;;;;10.73;87.19;100055.56;5073249;28;20055;-68
2020/12/24 01:37:18;;;;;;;1.58;0.90;;;;;;;10.67;87.16;100066.81;5074430;28;20118;-71
2020/12/24 01:40:04;;;;;;;2.28;0.70;;;;;;;10.76;86.67;100065.94;5072803;28;20097;-71
2020/12/24 01:42:48;;;;;;;3.47;0.80;;;;;;;10.76;87.15;100084.59;5073740;28;20129;-71
2020/12/24 01:45:33;;;;;;;3.42;1.00;;;;;;;10.76;87.83;100071.25;5072939;28;20054;-71
2020/12/24 01:48:17;;;;;;;3.80;0.60;;;;;;;10.77;88.78;100083.59;5072740;28;20153;-70
2020/12/24 01:51:01;;;;;;;1.75;0.80;;;;;;;10.70;91.26;100082.53;5072762;28;20040;-71
2020/12/24 01:53:46;;;;;;;1.55;0.98;;;;;;;10.67;92.45;100076.66;5072849;28;20095;-70
2020/12/24 01:56:30;;;;;;;4.20;0.80;;;;;;;10.59;94.36;100077.41;5072771;28;20475;-70
2020/12/24 01:59:17;;;;;;;3.58;1.17;;;;;;;10.58;95.33;100072.22;5072436;28;20508;-71
2020/12/24 02:02:02;;;;;;;2.33;0.80;;;;;;;10.59;96.13;100066.75;5072402;28;20100;-70
2020/12/24 02:04:46;;;;;;;2.53;0.80;;;;;;;10.52;97.31;100048.81;5073652;28;20413;-71
2020/12/24 02:07:30;;;;;;;2.50;0.80;;;;;;;10.53;96.49;100051.34;5072343;28;20512;-71
2020/12/24 02:10:14;;;;;;;2.47;0.93;;;;;;;10.54;94.09;100045.03;5058141;28;20562;-71
2020/12/24 02:12:59;;;;;;;2.78;0.80;;;;;;;10.54;93.41;100034.38;5073200;28;20128;-70
2020/12/24 02:15:43;;;;;;;3.17;0.90;;;;;;;10.53;91.84;100027.38;5073342;28;20127;-71
2020/12/24 02:18:27;;;;;;;4.20;1.15;;;;;;;10.43;91.06;100015.91;5058410;28;20098;-71
2020/12/24 02:21:11;;;;;;;5.85;1.00;;;;;;;10.40;89.10;100013.56;5073451;28;20051;-70
2020/12/24 02:23:55;;;;;;;4.28;1.25;;;;;;;10.44;89.68;100003.44;5073198;28;20520;-70
2020/12/24 02:26:39;;;;;;;7.00;1.58;;;;;;;10.43;86.87;100002.59;5072397;28;20047;-70
2020/12/24 02:29:24;;;;;;;5.13;1.20;;;;;;;10.47;85.64;99982.63;5072723;28;20078;-70
2020/12/24 02:32:09;;;;;;;3.50;1.38;;;;;;;10.36;87.81;99987.38;5072317;28;20399;-71
2020/12/24 02:34:55;;;;;;;4.97;1.20;;;;;;;10.41;83.75;99996.59;5072982;28;20056;-70
2020/12/24 02:37:39;;;;;;;4.85;1.13;;;;;;;10.54;81.02;99991.72;5073041;28;20586;-71
2020/12/24 02:40:24;;;;;;;4.30;1.10;;;;;;;10.52;82.08;99987.53;5073001;28;20097;-71
2020/12/24 02:43:08;;;;;;;2.28;1.00;;;;;;;10.50;81.50;99985.03;5072201;28;20159;-71
2020/12/24 02:45:52;;;;;;;8.45;1.45;;;;;;;10.50;82.13;99985.03;5073241;28;20178;-71
2020/12/24 02:48:36;;;;;;;5.82;1.38;;;;;;;10.53;82.72;99990.03;5072951;28;20186;-71
2020/12/24 02:51:20;;;;;;;5.95;1.38;;;;;;;10.43;83.59;99983.94;5043592;28;20048;-70
2020/12/24 02:54:04;;;;;;;5.25;1.02;;;;;;;10.39;85.19;99971.91;5072940;28;20113;-71
2020/12/24 02:56:48;;;;;;;6.78;1.48;;;;;;;10.37;84.90;99965.06;5071906;28;20052;-70
2020/12/24 02:59:32;;;;;;;3.88;0.80;;;;;;;10.30;85.38;99961.31;5072167;28;20473;-71
2020/12/24 03:02:15;;;;;;;3.83;1.00;;;;;;;10.27;86.15;99956.28;5072742;28;20120;-71
2020/12/24 03:05:00;;;;;;;3.25;0.90;;;;;;;10.21;85.99;99966.72;5073062;28;20094;-71
2020/12/24 03:07:49;;;;;;;2.63;1.25;;;;;;;10.17;85.17;99955.50;5073087;28;20098;-70
2020/12/24 03:10:33;;;;;;;3.47;1.20;;;;;;;10.11;85.35;99952.59;5071955;28;20071;-71
2020/12/24 03:13:17;;;;;;;3.38;1.10;;;;;;;10.10;85.31;99953.59;5057545;28;20056;-70
2020/12/24 03:16:01;;;;;;;1.73;0.88;;;;;;;10.00;87.02;99945.59;5071682;28;20056;-70
2020/12/24 03:18:45;;;;;;;4.18;1.08;;;;;;;9.99;86.11;99929.78;5072949;28;20425;-71
2020/12/24 03:21:29;;;;;;;1.85;0.88;;;;;;;9.97;84.40;99927.28;5071561;28;20110;-70
2020/12/24 03:24:12;;;;;;;0.80;0.60;;;;;;;9.90;85.76;99931.50;5057426;28;20062;-70
2020/12/24 03:26:56;;;;;;;2.03;0.63;;;;;;;9.83;86.71;99938.44;5071847;28;20396;-71
2020/12/24 03:29:40;;;;;;;2.42;0.80;;;;;;;9.84;86.39;99936.59;5071585;28;20055;-71
2020/12/24 03:32:24;;;;;;;1.27;0.63;;;;;;;9.88;86.57;99944.13;5071581;28;20532;-70
2020/12/24 03:35:08;;;;;;;4.32;0.90;;;;;;;9.78;90.03;99946.00;5072802;28;20047;-71
2020/12/24 03:37:52;;;;;;;2.83;0.85;;;;;;;9.73;89.61;99950.94;5072817;28;20105;-70
2020/12/24 03:40:36;;;;;;;2.63;0.77;;;;;;;9.60;91.50;99950.41;5072711;28;20520;-71
2020/12/24 03:43:20;;;;;;;2.45;0.60;;;;;;;9.49;92.85;99936.47;5072748;28;20043;-71
2020/12/24 03:46:04;;;;;;;4.93;0.85;;;;;;;9.40;94.19;99929.34;5074499;28;20051;-70
2020/12/24 03:48:48;;;;;;;2.67;0.70;;;;;;;9.32;94.43;99951.34;5074988;28;20055;-70
2020/12/24 03:51:32;;;;;;;7.35;0.93;;;;;;;9.31;93.35;99933.72;5076035;28;20085;-70
2020/12/24 03:54:16;;;;;;;2.33;0.80;;;;;;;9.24;95.76;99942.41;5076148;28;20466;-70
2020/12/24 03:57:00;;;;;;;4.28;1.00;;;;;;;9.20;94.99;99941.00;5075834;28;20524;-71
2020/12/24 03:59:44;;;;;;;8.23;1.25;;;;;;;9.17;94.94;99950.13;5061000;28;20540;-71
2020/12/24 04:02:28;;;;;;;5.70;0.98;;;;;;;9.24;93.81;99942.41;5075958;28;20047;-70
2020/12/24 04:05:11;;;;;;;2.92;0.85;;;;;;;9.28;92.60;99939.31;5075966;28;20098;-71
2020/12/24 04:07:55;;;;;;;6.78;0.80;;;;;;;9.30;92.62;99926.72;5075879;28;20151;-71
2020/12/24 04:10:40;;;;;;;4.30;1.20;;;;;;;9.33;92.37;99925.56;5075681;28;20055;-68
2020/12/24 04:13:24;;;;;;;2.83;0.75;;;;;;;9.40;91.86;99932.81;5081564;23;20111;-66
2020/12/24 04:16:08;;;;;;;2.33;0.88;;;;;;;9.27;97.10;99936.81;5075733;28;20094;-65
2020/12/24 04:18:52;;;;;;;4.05;1.02;;;;;;;9.03;100.00;99942.59;5075417;28;20048;-65
2020/12/24 04:21:36;;;;;;;4.75;1.77;;;;;;;8.83;100.00;99926.78;5074677;28;20067;-65
2020/12/24 04:24:20;;;;;;;2.50;0.70;;;;;;;8.70;100.00;99931.56;5075549;28;20512;-66
2020/12/24 04:27:04;;;;;;;2.28;1.02;;;;;;;8.59;100.00;99926.41;5074531;28;20043;-66
2020/12/24 04:29:48;;;;;;;1.80;0.70;;;;;;;8.50;100.00;99927.22;5075224;28;20155;-66
2020/12/24 04:32:33;;;;;;;1.40;0.85;;;;;;;8.46;100.00;99934.63;5074224;28;20071;-66
2020/12/24 04:35:16;;;;;;;1.95;0.55;;;;;;;8.44;100.00;99930.47;5075114;28;20105;-66
2020/12/24 04:38:00;;;;;;;4.78;0.75;;;;;;;8.41;100.00;99909.47;5075059;28;20054;-66
2020/12/24 04:40:49;;;;;;;0.50;0.50;;;;;;;8.40;100.00;99907.78;5074010;28;20413;-65
2020/12/24 04:43:33;;;;;;;2.60;0.40;;;;;;;8.41;100.00;99906.81;5074886;28;20052;-66
2020/12/24 04:46:18;;;;;;;2.47;0.57;;;;;;;8.48;100.00;99895.50;5073903;28;20094;-66
2020/12/24 04:49:03;;;;;;;1.15;0.52;;;;;;;8.50;100.00;99903.31;5074070;28;20047;-65
2020/12/24 04:51:47;;;;;;;0.52;0.40;;;;;;;8.42;100.00;99890.75;5074758;28;20051;-64
2020/12/24 04:54:31;;;;;;;3.08;1.05;;;;;;;8.43;100.00;99887.09;5073626;28;20047;-65
2020/12/24 04:57:15;;;;;;;1.35;0.60;;;;;;;8.41;100.00;99878.44;5074482;28;20121;-66
2020/12/24 05:00:00;;;;;;;2.10;0.55;;;;;;;8.41;100.00;99877.59;5073622;28;20558;-66
2020/12/24 05:02:45;;;;;;;1.38;0.70;;;;;;;8.40;100.00;99873.25;5074493;28;20515;-65
2020/12/24 05:05:31;;;;;;;1.85;0.80;;;;;;;8.43;100.00;99865.00;5074812;28;20467;-66
2020/12/24 05:08:15;;;;;;;3.50;0.95;;;;;;;8.45;100.00;99847.97;5073802;28;20045;-66
2020/12/24 05:11:04;;;;;;;3.75;0.80;;;;;;;8.47;100.00;99853.13;5074612;28;20052;-65
2020/12/24 05:13:48;;;;;;;1.42;0.55;;;;;;;8.50;100.00;99850.19;5074137;28;20051;-65
2020/12/24 05:16:32;;;;;;;0.90;0.82;;;;;;;8.55;100.00;99855.94;5073209;28;20083;-66
2020/12/24 05:19:16;;;;;;;2.10;0.50;;;;;;;8.55;100.00;99853.28;5074474;28;20059;-65
2020/12/24 05:22:18;;;;;;;3.58;0.70;;;;;;;8.57;100.00;99846.00;5073456;28;20087;-65
2020/12/24 05:25:10;;;;;;;3.55;0.88;;;;;;;8.59;100.00;99854.66;5073065;28;20131;-65
2020/12/24 05:27:58;;;;;;;5.63;1.23;;;;;;;8.73;100.00;99835.59;5073049;28;20413;-66
2020/12/24 05:30:42;;;;;;;2.42;0.70;;;;;;;8.85;98.73;99829.16;5072870;28;20047;-64
2020/12/24 05:33:26;;;;;;;7.10;0.90;;;;;;;8.98;93.62;99816.41;5072926;28;20056;-65
2020/12/24 05:36:21;;;;;;;1.92;0.80;;;;;;;9.11;92.37;99820.41;5073894;28;20052;-65
2020/12/24 05:39:07;;;;;;;;;;;;;;;9.13;91.41;99806.94;5073294;28;20122;-66
2020/12/24 05:41:51;;;;;;;2.85;1.20;;;;;;;9.20;89.68;99819.53;5073047;28;20439;-66
2020/12/24 05:44:36;;;;;;;3.72;0.88;;;;;;;9.30;88.39;99809.69;5072736;28;20123;-66
2020/12/24 05:47:27;;;;;;;4.18;0.95;;;;;;;9.43;84.87;99822.63;5073918;28;20049;-66
2020/12/24 05:50:21;;;;;;;1.95;1.17;;;;;;;9.51;83.00;99818.25;5072865;28;20048;-66
2020/12/24 05:53:10;;;;;;;4.68;1.00;;;;;;;9.62;80.81;99831.38;5074067;28;20063;-66
2020/12/24 05:55:55;;;;;;;6.28;0.90;;;;;;;9.63;80.82;99826.88;5072768;28;20051;-66
2020/12/24 05:58:40;;;;;;;2.85;0.80;;;;;;;9.59;82.95;99818.34;5073593;28;20059;-66
2020/12/24 06:01:27;;;;;;;7.75;1.45;;;;;;;9.47;84.08;99808.06;5073746;28;20074;-65
2020/12/24 06:04:21;;;;;;;3.53;0.80;;;;;;;9.34;84.92;99816.38;5072651;28;20412;-65
2020/12/24 06:07:10;;;;;;;3.55;0.80;;;;;;;9.17;89.22;99818.97;5072682;28;20508;-65
2020/12/24 06:09:53;;;;;;;1.73;0.90;;;;;;;9.00;90.99;99812.63;5057762;28;20048;-65
2020/12/24 06:12:50;;;;;;;6.28;0.70;;;;;;;8.99;89.15;99808.25;5072121;28;20051;-66
2020/12/24 06:15:36;;;;;;;4.82;0.93;;;;;;;8.85;90.93;99813.22;5072292;28;20043;-65
2020/12/24 06:18:20;;;;;;;4.93;1.00;;;;;;;8.70;94.18;99809.31;5058423;28;20079;-64
2020/12/24 06:21:11;;;;;;;4.38;1.10;;;;;;;8.60;95.01;99813.81;5072313;28;20098;-65
2020/12/24 06:23:58;;;;;;;3.97;0.77;;;;;;;8.63;94.81;99818.84;5073373;28;20097;-65
2020/12/24 06:26:48;;;;;;;7.28;1.00;;;;;;;8.49;96.67;99816.63;5072442;28;20109;-63
2020/12/24 06:29:36;;;;;;;4.75;0.65;;;;;;;8.57;92.56;99838.84;5073386;28;20043;-63
2020/12/24 06:32:21;;;;;;;3.25;1.08;;;;;;;8.44;96.00;99835.66;5072282;28;20090;-65
2020/12/24 06:35:05;;;;;;;1.90;0.70;;;;;;;8.28;99.81;99813.31;5073388;28;20047;-65
2020/12/24 06:37:49;;;;;;;2.03;0.70;;;;;;;8.14;100.00;99811.88;5073358;28;20059;-65
2020/12/24 06:40:36;;;;;;;2.25;0.80;;;;;;;8.08;100.00;99806.28;5073335;28;20048;-65
2020/12/24 06:43:39;;;;;;;1.63;0.70;;;;;;;7.99;100.00;99809.78;5071963;28;20051;-65
2020/12/24 06:46:23;;;;;;;9.63;1.10;;;;;;;7.95;100.00;99803.91;5072224;28;20097;-65
2020/12/24 06:49:07;;;;;;;4.38;1.10;;;;;;;7.91;100.00;99801.66;5073264;28;20199;-65
2020/12/24 06:51:51;;;;;;;3.92;0.88;;;;;;;7.91;100.00;99805.16;5073138;28;20090;-65
2020/12/24 06:54:38;;;;;;;2.17;1.17;;;;;;;7.90;100.00;99792.03;5072410;28;20067;-65
2020/12/24 06:57:25;;;;;;;2.22;0.80;;;;;;;7.91;100.00;99796.34;5073451;28;20044;-65
2020/12/24 07:00:23;;;;;;;2.33;0.75;;;;;;;7.89;100.00;99796.50;5071958;28;20543;-65
2020/12/24 07:03:25;;;;;;;5.13;1.10;;;;;;;7.84;100.00;99806.69;5073030;28;20048;-65
2020/12/24 07:06:10;;;;;;;6.00;1.10;;;;;;;7.78;100.00;99801.09;5071981;28;20472;-66
2020/12/24 07:08:53;;;;;;;3.70;0.95;;;;;;;7.74;100.00;99797.06;5072742;28;20186;-65
2020/12/24 07:11:47;;;;;;;3.85;1.30;;;;;;;7.76;100.00;99806.53;5072978;28;20158;-65
2020/12/24 07:14:39;;;;;;;5.95;1.55;;;;;;;7.72;100.00;99799.84;5071515;28;20055;-65
2020/12/24 07:17:23;;;;;;;2.90;1.02;;;;;;;7.68;100.00;99805.56;5073152;28;20456;-64
2020/12/24 07:20:07;;;;;;;4.88;1.30;;;;;;;7.66;100.00;99815.47;5074654;28;20117;-66
2020/12/24 07:22:53;;;;;;;2.47;0.50;;;;;;;7.67;100.00;99806.53;5076633;28;20097;-65
2020/12/24 07:25:37;;;;;;;10.25;1.25;;;;;;;7.65;100.00;99803.19;5076404;28;20051;-65
2020/12/24 07:28:21;;;;;;;8.55;1.40;;;;;;;7.62;100.00;99798.97;5076388;28;20043;-66
2020/12/24 07:31:10;;;;;;;4.57;1.17;;;;;;;7.59;100.00;99803.72;5076214;28;20086;-66
2020/12/24 07:33:54;;;;;;;4.53;1.33;;;;;;;7.57;100.00;99796.91;5075161;28;20142;-65
2020/12/24 07:36:38;;;;;;;7.38;1.00;;;;;;;7.57;100.00;99829.53;5076185;28;20412;-64
2020/12/24 07:39:22;;;;;;;4.72;1.13;;;;;;;7.56;100.00;99809.31;5061243;28;20078;-66
2020/12/24 07:42:06;;;;;;;3.85;1.02;;;;;;;7.57;100.00;99818.13;5076118;28;20461;-66
2020/12/24 07:44:50;;;;;;;4.78;1.20;;;;;;;7.55;100.00;99807.63;5076317;28;20059;-66
2020/12/24 07:47:34;;;;;;;10.15;1.33;;;;;;;7.57;100.00;99818.13;5076194;28;20179;-65
2020/12/24 07:50:28;;;;;;;5.50;1.42;;;;;;;7.58;100.00;99810.00;5075838;28;20075;-65
2020/12/24 07:53:20;;;;;;;3.97;1.25;;;;;;;7.56;100.00;99819.91;5075962;28;20047;-65
2020/12/24 07:56:05;;;;;;;2.30;0.90;;;;;;;7.55;100.00;99810.28;5075869;28;20052;-65
2020/12/24 07:58:59;;;;;;;7.25;1.33;;;;;;;7.50;100.00;99807.19;5075980;28;20051;-66
2020/12/24 08:01:43;;;;;;;9.63;2.03;;;;;;;7.46;100.00;99813.75;5074988;28;20127;-65
2020/12/24 08:04:27;;;;;;;5.32;1.23;;;;;;;7.46;100.00;99815.53;5075863;28;20416;-64
2020/12/24 08:07:12;;;;;;;4.38;0.82;;;;;;;7.46;100.00;99819.06;5075921;28;20239;-65
2020/12/24 08:10:09;;;;;;;14.20;1.63;;;;;;;7.46;100.00;99842.06;5075804;28;20083;-65
2020/12/24 08:13:01;;;;;;;4.68;1.58;;;;;;;7.43;100.00;99823.78;5074490;28;20043;-65
2020/12/24 08:15:46;;;;;;;8.40;1.50;;;;;;;7.41;100.00;99831.88;5075781;28;20040;-65
2020/12/24 08:18:39;;;;;;;8.52;1.20;;;;;;;7.40;100.00;99830.19;5074687;28;20051;-64
2020/12/24 08:21:26;;;;;;;8.52;1.83;;;;;;;7.41;100.00;99831.88;5074646;28;20040;-66
2020/12/24 08:24:10;;;;;;;6.57;1.95;;;;;;;7.40;100.00;99835.47;5074506;28;20520;-65
2020/12/24 08:26:57;;;;;;;6.90;1.50;;;;;;;7.36;100.00;99831.44;5074569;28;20079;-65
2020/12/24 08:29:45;;;;;;;11.85;2.40;;;;;;;7.39;100.00;99836.47;5074672;28;20079;-66
2020/12/24 08:32:30;;;;;;;8.10;1.85;;;;;;;7.40;100.00;99838.13;5074802;28;20043;-64
2020/12/24 08:35:33;;;;;;;7.32;1.55;;;;;;;7.41;100.00;99847.81;5074907;28;20106;-64
2020/12/24 08:38:18;;;;;;;7.60;1.70;;;;;;;7.43;100.00;99850.28;5075525;28;20043;-64
2020/12/24 08:41:02;;;;;;;8.32;1.63;;;;;;;7.40;100.00;99845.28;5074480;28;20043;-64
2020/12/24 08:43:51;;;;;;;10.45;1.95;;;;;;;7.39;100.00;99855.03;5074493;28;20052;-64
2020/12/24 08:46:36;;;;;;;2.17;0.90;;;;;;;7.38;100.00;99853.34;5074528;28;20062;-64
2020/12/24 08:49:24;;;;;;;6.75;1.58;;;;;;;7.40;100.00;99861.19;5059954;28;20051;-64
2020/12/24 08:52:11;;;;;;;5.82;1.45;;;;;;;7.40;100.00;99864.66;5074351;28;20110;-63
2020/12/24 08:55:14;;;;;;;2.88;0.95;;;;;;;7.36;100.00;99863.25;5060007;28;20051;-63
2020/12/24 08:58:04;;;;;;;7.07;1.27;;;;;;;7.36;100.00;99863.25;5060080;28;20047;-64
2020/12/24 09:00:49;;;;;;;5.28;1.92;;;;;;;7.34;100.00;99859.91;5074892;28;20047;-65
2020/12/24 09:03:33;;;;;;;6.50;1.58;;;;;;;7.33;100.00;99871.50;5074018;28;20086;-66
2020/12/24 09:06:18;;;;;;;5.25;1.33;;;;;;;7.35;100.00;99863.38;5059911;28;20417;-64
2020/12/24 09:09:02;;;;;;;9.20;1.70;;;;;;;7.33;100.00;99882.09;5059394;28;20063;-65
2020/12/24 09:11:47;;;;;;;4.43;1.35;;;;;;;7.33;100.00;99875.94;5074309;28;20047;-64
2020/12/24 09:14:31;;;;;;;7.65;1.50;;;;;;;7.30;100.00;99890.28;5073086;28;20048;-64
2020/12/24 09:17:15;;;;;;;1.17;0.60;;;;;;;7.28;100.00;99899.38;5073376;28;20048;-64
2020/12/24 09:20:08;;;;;;;2.67;0.90;;;;;;;7.26;100.00;99906.59;5074519;28;20425;-65
2020/12/24 09:22:56;;;;;;;5.07;0.90;;;;;;;7.28;100.00;99910.81;5074052;28;20048;-64
2020/12/24 09:25:44;;;;;;;6.72;1.20;;;;;;;7.31;100.00;99899.09;5072948;28;20059;-64
2020/12/24 09:28:29;;;;;;;6.70;1.58;;;;;;;7.32;100.00;99906.06;5072935;28;20059;-65
2020/12/24 09:31:14;;;;;;;8.10;1.70;;;;;;;7.33;100.00;99908.59;5074038;28;20101;-64
2020/12/24 09:33:58;;;;;;;4.75;1.30;;;;;;;7.37;100.00;99904.72;5073905;28;20081;-65
2020/12/24 09:36:42;;;;;;;5.55;1.25;;;;;;;7.39;100.00;99918.66;5074209;28;20071;-64
2020/12/24 09:39:25;;;;;;;8.23;1.60;;;;;;;7.38;100.00;99917.00;5073162;28;20071;-64
2020/12/24 09:42:11;;;;;;;5.40;1.60;;;;;;;7.34;100.00;99899.69;5073874;28;20106;-65
2020/12/24 09:44:54;;;;;;;3.75;1.20;;;;;;;7.35;100.00;99909.31;5072748;28;20051;-65
2020/12/24 09:47:38;;;;;;;4.28;0.90;;;;;;;7.39;100.00;99908.06;5072954;28;20177;-64
2020/12/24 09:50:22;;;;;;;3.72;1.10;;;;;;;7.42;100.00;99906.97;5073830;28;20067;-64
2020/12/24 09:53:06;;;;;;;3.47;0.98;;;;;;;7.43;100.00;99920.09;5073754;28;20121;-63
2020/12/24 09:55:50;;;;;;;2.80;0.95;;;;;;;7.51;100.00;99917.59;5072645;28;20047;-64
2020/12/24 09:58:34;;;;;;;5.78;0.77;;;;;;;7.57;100.00;99917.06;5072751;28;20105;-64
2020/12/24 10:01:18;;;;;;;3.72;1.35;;;;;;;7.76;100.00;99915.31;5074053;28;20047;-64
2020/12/24 10:04:02;;;;;;;4.18;0.80;;;;;;;7.86;100.00;99913.53;5072413;28;20128;-64
2020/12/24 10:06:46;;;;;;;4.75;1.15;;;;;;;7.81;100.00;99914.91;5073679;28;20074;-63
2020/12/24 10:09:31;;;;;;;3.28;0.73;;;;;;;7.71;100.00;99922.84;5072657;28;20520;-64
2020/12/24 10:12:17;;;;;;;2.65;0.73;;;;;;;7.73;100.00;99930.69;5073321;28;20044;-64
2020/12/24 10:15:02;;;;;;;1.02;0.70;;;;;;;7.71;100.00;99917.56;5175039;22;20131;-68
2020/12/24 10:17:46;;;;;;;;;;;;;;;7.74;100.00;99921.75;5072679;28;20054;-68
2020/12/24 10:20:30;;;;;;;1.93;0.77;;;;;;;7.68;100.00;99915.19;5072542;28;19978;-68
2020/12/24 10:23:15;;;;;;;3.53;0.80;;;;;;;7.64;100.00;99912.94;5073735;28;20047;-69
2020/12/24 10:25:59;;;;;;;2.65;0.45;;;;;;;7.65;100.00;99909.28;5073113;28;20051;-68
2020/12/24 10:28:43;;;;;;;2.47;0.77;;;;;;;7.62;100.00;99917.53;5072420;28;20042;-68
2020/12/24 10:31:27;;;;;;;8.68;1.65;;;;;;;7.60;100.00;99911.50;5073368;28;20079;-69
2020/12/24 10:34:12;;;;;;;0.93;0.57;;;;;;;7.66;100.00;99908.31;5072329;28;20098;-68
2020/12/24 10:36:57;;;;;;;3.00;0.70;;;;;;;7.67;100.00;99915.31;5073391;28;20047;-68
2020/12/24 10:39:40;;;;;;;3.20;0.77;;;;;;;7.69;100.00;99905.38;5072284;28;20048;-69
2020/12/24 10:42:25;;;;;;;1.88;0.77;;;;;;;7.70;100.00;99901.75;5071991;28;20048;-68
2020/12/24 10:45:09;;;;;;;0.90;0.60;;;;;;;7.70;100.00;99909.72;5072915;28;20097;-69
2020/12/24 10:47:52;;;;;;;3.35;0.68;;;;;;;7.73;100.00;99912.13;5072247;28;20070;-68
2020/12/24 10:50:36;;;;;;;1.60;0.77;;;;;;;7.76;100.00;99906.53;5072946;28;20140;-68
2020/12/24 10:53:20;;;;;;;1.98;0.80;;;;;;;7.75;100.00;99899.56;5072237;28;20052;-68
2020/12/24 10:56:04;;;;;;;1.20;0.68;;;;;;;7.79;100.00;99893.00;5076570;28;20405;-65
2020/12/24 10:58:49;;;;;;;1.65;0.55;;;;;;;7.81;100.00;99891.03;5077107;28;20042;-68
2020/12/24 11:01:33;;;;;;;1.40;0.70;;;;;;;7.82;100.00;99904.19;5062208;28;20074;-68
2020/12/24 11:04:17;;;;;;;1.67;0.70;;;;;;;7.85;100.00;99905.72;5076963;28;20050;-67
2020/12/24 11:07:01;;;;;;;0.93;0.68;;;;;;;7.87;100.00;99898.47;5076899;28;20109;-67
2020/12/24 11:09:45;;;;;;;1.02;0.57;;;;;;;7.95;100.00;99882.69;5075709;28;20102;-67
2020/12/24 11:12:29;;;;;;;2.17;0.90;;;;;;;7.99;100.00;99894.72;5076912;28;20044;-67
2020/12/24 11:15:13;;;;;;;2.53;0.70;;;;;;;8.06;100.00;99901.16;5076449;28;20050;-67
2020/12/24 11:17:57;;;;;;;3.70;0.85;;;;;;;8.13;100.00;99894.34;5076890;28;20114;-67
2020/12/24 11:20:41;;;;;;;1.45;0.60;;;;;;;8.14;100.00;99911.94;5075756;28;20473;-67
2020/12/24 11:23:25;;;;;;;1.33;0.45;;;;;;;8.05;100.00;99902.97;5075386;28;20047;-68
2020/12/24 11:26:09;;;;;;;0.50;0.40;;;;;;;8.06;100.00;99893.19;5076344;28;20385;-67
2020/12/24 11:28:53;;;;;;;0.75;0.50;;;;;;;8.09;100.00;99884.94;5075418;28;20570;-67
2020/12/24 11:31:38;;;;;;;0.35;0.30;;;;;;;8.10;100.00;99918.47;5075404;28;20055;-67
2020/12/24 11:34:22;;;;;;;0.55;0.50;;;;;;;8.21;100.00;99907.78;5076049;28;20523;-67
2020/12/24 11:37:06;;;;;;;2.65;0.45;;;;;;;8.22;100.00;99890.84;5076211;28;20102;-67
2020/12/24 11:39:50;;;;;;;1.85;0.50;;;;;;;8.24;100.00;99888.94;5076160;28;20098;-67
2020/12/24 11:42:34;;;;;;;1.20;0.60;;;;;;;8.19;100.00;99877.88;5075345;28;20131;-68
2020/12/24 11:45:18;;;;;;;1.20;0.82;;;;;;;8.19;100.00;99886.69;5074980;28;20051;-68
2020/12/24 11:48:02;;;;;;;2.67;0.73;;;;;;;8.27;100.00;99884.16;5075985;28;20059;-67
2020/12/24 11:50:46;;;;;;;0.30;0.30;;;;;;;8.36;100.00;99887.81;5076154;28;20055;-68
2020/12/24 11:53:30;;;;;;;0.98;0.47;;;;;;;8.38;100.00;99883.19;5075070;28;20174;-68
2020/12/24 11:56:18;;;;;;;1.20;0.70;;;;;;;8.41;100.00;99891.72;5075090;28;20059;-67
2020/12/24 11:59:03;;;;;;;1.42;0.60;;;;;;;8.38;100.00;99888.50;5076128;28;20055;-68
2020/12/24 12:01:50;;;;;;;2.65;0.60;;;;;;;8.36;100.00;99885.97;5075731;28;20047;-66
2020/12/24 12:04:35;;;;;;;1.40;0.47;;;;;;;8.42;100.00;99876.59;5060426;28;20079;-68
2020/12/24 12:07:19;;;;;;;2.47;0.60;;;;;;;8.41;100.00;99889.06;5074698;28;20071;-67
2020/12/24 12:10:04;;;;;;;0.63;0.40;;;;;;;8.39;100.00;99891.03;5074860;28;20055;-67
2020/12/24 12:12:47;;;;;;;1.65;0.60;;;;;;;8.37;100.00;99892.97;5075641;28;20043;-67
2020/12/24 12:15:32;;;;;;;3.38;0.88;;;;;;;8.35;100.00;99899.41;5060173;28;20051;-68
2020/12/24 12:18:16;;;;;;;2.65;0.60;;;;;;;8.29;100.00;99899.97;5075715;28;20047;-68
2020/12/24 12:21:02;;;;;;;1.67;0.95;;;;;;;8.24;100.00;99891.59;5074424;28;20093;-67
2020/12/24 12:23:47;;;;;;;2.40;0.90;;;;;;;8.19;100.00;99896.44;5060267;28;20519;-68
2020/12/24 12:26:31;;;;;;;2.40;1.08;;;;;;;8.16;100.00;99888.75;5075232;28;20079;-67
2020/12/24 12:29:15;;;;;;;1.83;0.80;;;;;;;8.18;100.00;99886.78;5060286;28;20094;-69
2020/12/24 12:32:00;;;;;;;2.85;0.80;;;;;;;8.14;100.00;99891.53;5075391;28;20139;-69
2020/12/24 12:34:46;;;;;;;1.77;1.13;;;;;;;8.05;100.00;99891.53;5074982;28;20050;-68
2020/12/24 12:37:33;;;;;;;2.33;1.55;;;;;;;8.10;100.00;99898.09;5075391;28;20113;-69
2020/12/24 12:40:17;;;;;;;2.00;0.90;;;;;;;8.05;100.00;99902.13;5074270;28;20507;-69
2020/12/24 12:43:02;;;;;;;0.70;0.60;;;;;;;8.03;100.00;99890.81;5074061;28;20075;-69
2020/12/24 12:45:46;;;;;;;1.45;0.60;;;;;;;7.96;100.00;99900.31;5074046;28;20047;-69
2020/12/24 12:48:30;;;;;;;0.35;0.32;;;;;;;7.86;100.00;99880.88;5073833;28;20047;-70
2020/12/24 12:51:14;;;;;;;0.52;0.40;;;;;;;7.86;100.00;99887.00;5074977;28;20043;-68
2020/12/24 12:53:58;;;;;;;0.95;0.63;;;;;;;7.82;100.00;99884.78;5059832;28;20048;-70
2020/12/24 12:56:43;;;;;;;1.10;0.60;;;;;;;7.83;100.00;99889.94;5073935;28;20155;-68
2020/12/24 12:59:27;;;;;;;1.27;0.70;;;;;;;7.83;100.00;99886.47;5074809;28;20047;-66